Time;durP1;ratioP1;P1;durP2;ratioP2;P2;SDS_P1;SDS_P2;PMS_P1;PMS_P2;Temp;Humidity;BMP_temperature;BMP_pressure;BME280_temperature;BME280_humidity;BME280_pressure;Samples;Min_cycle;Max_cycle;Signal;HPM_P1;HPM_P2
2021/12/02 00:02:11;;;;;;;;;4.75;1.25;;;;;6.70;88.17;99455.56;5012937;28;45263;-72
2021/12/02 00:04:38;;;;;;;;;4.75;4.00;;;;;6.72;88.26;99469.41;5013009;28;45345;-71
2021/12/02 00:07:05;;;;;;;;;6.25;4.00;;;;;6.69;88.30;99467.78;5014120;28;45503;-74
2021/12/02 00:09:32;;;;;;;;;5.75;5.00;;;;;6.68;88.41;99475.69;5016973;27;45618;-74
2021/12/02 00:11:57;;;;;;;;;3.00;2.25;;;;;6.63;89.13;99467.19;5079806;27;45576;-76
2021/12/02 00:14:25;;;;;;;;;3.00;2.25;;;;;6.54;88.66;99464.06;5075280;27;45302;-76
2021/12/02 00:22:11;;;;;;;;;5.50;3.75;;;;;6.53;90.07;99483.25;5116821;27;45301;-72
2021/12/02 00:24:39;;;;;;;;;5.00;4.00;;;;;6.55;90.48;99480.56;5088342;27;45449;-74
2021/12/02 00:27:07;;;;;;;;;5.00;3.00;;;;;6.56;89.95;99490.97;5083123;27;45422;-75
2021/12/02 00:29:35;;;;;;;;;4.00;3.00;;;;;6.57;89.11;99491.78;5116867;27;45384;-74
2021/12/02 00:32:06;;;;;;;;;5.50;4.00;;;;;6.56;89.87;99498.81;5116175;27;46379;-73
2021/12/02 00:34:32;;;;;;;;;4.50;4.00;;;;;6.56;89.35;99504.03;5116160;27;45558;-74
2021/12/02 00:37:00;;;;;;;;;3.00;3.00;;;;;6.59;89.48;99497.81;5091237;27;45589;-74
2021/12/02 00:39:27;;;;;;;;;4.50;4.00;;;;;6.58;90.34;99503.94;5058744;27;45199;-73
2021/12/02 00:41:55;;;;;;;;;5.25;4.25;;;;;6.57;90.33;99508.34;5000569;27;45421;-70
2021/12/02 00:44:20;;;;;;;;;4.75;4.00;;;;;6.50;91.84;99512.13;5027419;27;45522;-71
2021/12/02 00:46:46;;;;;;;;;6.50;4.00;;;;;6.36;92.74;99498.72;5098151;27;45445;-73
2021/12/02 00:49:15;;;;;;;;;6.00;5.00;;;;;6.31;93.74;99511.13;5078956;27;45569;-71
2021/12/02 00:51:46;;;;;;;;;7.25;6.75;;;;;6.21;94.35;99502.81;5115587;27;46424;-72
2021/12/02 00:54:12;;;;;;;;;7.00;5.25;;;;;6.15;94.87;99516.97;4990871;28;45472;-74
2021/12/02 00:56:40;;;;;;;;;4.25;2.75;;;;;6.13;94.76;99517.03;4990898;28;45451;-73
2021/12/02 00:59:07;;;;;;;;;7.50;6.75;;;;;6.10;94.40;99508.47;4991848;28;45371;-73
2021/12/02 01:01:34;;;;;;;;;6.50;5.00;;;;;6.05;93.84;99511.25;4993106;28;46640;-72
2021/12/02 01:04:03;;;;;;;;;10.00;6.50;;;;;6.06;95.07;99512.09;4993222;28;45596;-73
2021/12/02 01:06:29;;;;;;;;;8.00;6.00;;;;;6.00;94.90;99510.56;4994655;28;45410;-72
2021/12/02 01:08:55;;;;;;;;;9.00;6.00;;;;;6.07;94.55;99519.03;4997579;28;45394;-74
2021/12/02 01:11:21;;;;;;;;;5.75;4.00;;;;;6.08;95.20;99524.19;4995019;28;45304;-73
2021/12/02 01:13:47;;;;;;;;;6.75;6.75;;;;;6.11;94.88;99523.22;4994436;28;45310;-72
2021/12/02 01:16:15;;;;;;;;;7.25;6.00;;;;;6.07;95.02;99511.19;4995248;28;45469;-75
2021/12/02 01:18:40;;;;;;;;;9.50;8.00;;;;;6.08;94.34;99523.31;4994281;28;45559;-73
2021/12/02 01:21:06;;;;;;;;;10.25;9.00;;;;;6.17;94.66;99533.41;4996262;28;45404;-73
2021/12/02 01:23:33;;;;;;;;;7.00;6.25;;;;;6.18;95.10;99529.06;5001075;28;45571;-75
2021/12/02 01:26:05;;;;;;;;;10.75;8.50;;;;;6.24;94.20;99537.50;4999223;28;45324;-75
2021/12/02 01:28:32;;;;;;;;;11.50;10.00;;;;;6.25;95.19;99538.34;5013494;27;45776;-74
2021/12/02 01:30:58;;;;;;;;;9.75;8.25;;;;;6.24;94.16;99537.50;4997071;28;46093;-74
2021/12/02 01:33:26;;;;;;;;;8.25;8.25;;;;;6.25;94.25;99535.75;4995442;28;45333;-74
2021/12/02 01:35:57;;;;;;;;;9.25;8.50;;;;;6.28;94.69;99539.06;4995199;28;45258;-71
2021/12/02 01:38:24;;;;;;;;;8.00;4.25;;;;;6.28;93.97;99531.22;4995689;28;45439;-73
2021/12/02 01:40:51;;;;;;;;;8.00;8.00;;;;;6.31;94.30;99542.47;4995462;28;46244;-72
2021/12/02 01:43:18;;;;;;;;;11.25;8.00;;;;;6.31;94.08;99547.69;4995614;28;45390;-75
2021/12/02 01:45:44;;;;;;;;;9.25;9.00;;;;;6.31;94.09;99550.31;4995824;28;45326;-73
2021/12/02 01:48:12;;;;;;;;;10.25;7.25;;;;;6.31;94.81;99556.41;4997027;28;45479;-73
2021/12/02 01:50:43;;;;;;;;;8.50;7.25;;;;;6.31;94.45;99565.97;5003744;28;46949;-74
2021/12/02 01:53:15;;;;;;;;;8.00;7.75;;;;;6.31;94.04;99571.19;5001128;28;45369;-75
2021/12/02 01:55:43;;;;;;;;;12.00;9.25;;;;;6.27;93.17;99566.09;4996490;28;45464;-75
2021/12/02 01:58:15;;;;;;;;;8.25;7.75;;;;;6.33;94.09;99574.59;4994943;28;45353;-73
2021/12/02 02:00:46;;;;;;;;;9.50;8.00;;;;;6.33;94.22;99575.47;4994855;28;46005;-73
2021/12/02 02:03:14;;;;;;;;;9.50;6.75;;;;;6.33;93.74;99574.59;4994496;28;45475;-75
2021/12/02 02:05:40;;;;;;;;;11.25;8.75;;;;;6.27;93.98;99571.31;4994965;28;45433;-73
2021/12/02 02:08:18;;;;;;;;;7.75;6.25;;;;;6.32;93.29;99588.56;4994963;28;45249;-74
2021/12/02 02:10:45;;;;;;;;;5.50;5.00;;;;;6.27;93.49;99581.75;4994361;27;45411;-73
2021/12/02 02:13:12;;;;;;;;;9.00;7.25;;;;;6.29;93.03;99587.78;4994759;28;45372;-72
2021/12/02 02:15:43;;;;;;;;;10.25;7.25;;;;;6.28;93.35;99583.47;4997193;28;45247;-72
2021/12/02 02:20:37;;;;;;;;;9.00;7.25;;;;;6.33;92.99;99598.97;4994391;28;45345;-73
2021/12/02 02:23:05;;;;;;;;;7.25;5.25;;;;;6.33;93.23;99608.56;5009593;28;45298;-75
2021/12/02 02:25:31;;;;;;;;;14.50;8.75;;;;;6.31;93.59;99606.03;4994498;28;45326;-73
2021/12/02 02:27:56;;;;;;;;;5.50;5.50;;;;;6.33;93.55;99611.16;4994715;28;45320;-74
2021/12/02 02:30:22;;;;;;;;;7.00;7.00;;;;;6.34;92.95;99612.88;4994782;28;45660;-74
2021/12/02 02:32:47;;;;;;;;;7.00;6.25;;;;;6.32;92.22;99615.56;4993093;28;45336;-74
2021/12/02 02:35:13;;;;;;;;;10.75;7.00;;;;;6.33;93.16;99626.84;4994654;28;45404;-72
2021/12/02 02:37:38;;;;;;;;;7.00;7.00;;;;;6.33;93.02;99621.63;4994722;28;45329;-75
2021/12/02 02:40:08;;;;;;;;;6.00;5.75;;;;;6.28;92.60;99620.03;4995187;28;47405;-72
2021/12/02 02:42:35;;;;;;;;;6.00;5.00;;;;;6.00;92.71;99570.59;4996165;28;45365;-74
2021/12/02 02:45:01;;;;;;;;;9.75;6.75;;;;;6.31;92.68;99626.91;4997213;28;45362;-72
2021/12/02 02:47:28;;;;;;;;;8.00;6.00;;;;;6.27;92.58;99634.00;4994455;28;45489;-73
2021/12/02 02:49:55;;;;;;;;;6.50;6.00;;;;;6.28;92.35;99633.09;4994653;28;46313;-74
2021/12/02 02:52:20;;;;;;;;;7.00;5.00;;;;;6.27;92.43;99631.38;4994076;28;45435;-74
2021/12/02 02:54:46;;;;;;;;;6.75;5.25;;;;;6.18;92.55;99616.06;4993960;28;45365;-74
2021/12/02 02:57:14;;;;;;;;;7.00;4.25;;;;;6.23;91.95;99628.97;4994748;28;45424;-74
2021/12/02 03:00:04;;;;;;;;;6.50;4.50;;;;;6.24;91.15;99634.13;4994588;28;46963;-72
2021/12/02 03:05:25;;;;;;;;;5.00;5.00;;;;;6.28;91.62;99638.31;4997122;28;45306;-78
2021/12/02 03:07:59;;;;;;;;;5.25;4.75;;;;;6.28;92.18;99633.09;5001700;28;45464;-74
2021/12/02 03:18:22;;;;;;;;;5.25;3.75;;;;;6.28;90.44;99645.31;4994729;28;45429;-72
2021/12/02 03:20:47;;;;;;;;;6.00;4.25;;;;;6.28;90.19;99653.97;4994011;28;45556;-74
2021/12/02 03:23:13;;;;;;;;;5.50;3.50;;;;;6.22;89.95;99651.59;4994457;28;45266;-74
2021/12/02 03:25:38;;;;;;;;;3.00;2.00;;;;;6.24;89.52;99659.41;4992951;28;45224;-72
2021/12/02 03:28:04;;;;;;;;;4.50;3.75;;;;;6.21;89.59;99670.78;4995055;28;45251;-75
2021/12/02 03:30:30;;;;;;;;;1.25;1.00;;;;;6.19;89.37;99674.38;4993184;28;46074;-74
2021/12/02 03:32:55;;;;;;;;;4.00;2.75;;;;;6.21;88.99;99676.00;4994504;28;45223;-75
2021/12/02 03:35:23;;;;;;;;;2.50;1.75;;;;;6.01;87.83;99647.16;4994470;28;45313;-70
2021/12/02 03:37:49;;;;;;;;;3.25;2.75;;;;;6.03;88.41;99647.97;5000694;28;45493;-72
2021/12/02 03:40:15;;;;;;;;;2.75;2.50;;;;;6.19;88.44;99680.44;4994231;28;45935;-70
2021/12/02 03:42:49;;;;;;;;;1.75;1.75;;;;;6.16;87.83;99675.34;4993945;28;45451;-71
2021/12/02 03:45:15;;;;;;;;;2.50;1.00;;;;;6.12;88.17;99671.13;4993706;28;45343;-75
2021/12/02 03:47:40;;;;;;;;;2.00;1.00;;;;;6.13;88.02;99675.44;4993904;28;45393;-72
2021/12/02 03:50:06;;;;;;;;;3.75;3.00;;;;;6.10;87.15;99671.19;4993723;28;46021;-74
2021/12/02 03:52:31;;;;;;;;;1.50;1.50;;;;;6.14;87.23;99684.97;4993642;27;45388;-75
2021/12/02 03:54:57;;;;;;;;;1.00;1.00;;;;;6.09;87.48;99677.34;4994253;28;45323;-74
2021/12/02 03:57:22;;;;;;;;;0.00;0.00;;;;;6.10;86.30;99696.44;4994073;28;45299;-76
2021/12/02 03:59:48;;;;;;;;;1.00;1.00;;;;;6.03;85.91;99702.78;4993404;28;46173;-71
2021/12/02 04:02:13;;;;;;;;;4.25;1.00;;;;;5.99;85.69;99702.03;4993665;28;45310;-75
2021/12/02 04:04:38;;;;;;;;;2.50;2.00;;;;;5.92;84.89;99682.28;4993855;28;45341;-74
2021/12/02 04:07:04;;;;;;;;;2.00;1.00;;;;;5.95;85.64;99709.09;4994296;28;45174;-71
2021/12/02 04:09:36;;;;;;;;;2.00;0.25;;;;;5.95;85.76;99706.50;4995209;28;47188;-74
2021/12/02 04:12:08;;;;;;;;;3.00;1.00;;;;;5.89;85.22;99695.44;4995695;28;45283;-75
2021/12/02 04:15:01;;;;;;;;;3.75;1.00;;;;;5.83;84.75;99701.72;5000005;28;45831;-73
2021/12/02 04:17:28;;;;;;;;;0.25;0.25;;;;;5.70;84.30;99690.81;4997271;27;45297;-73
2021/12/02 04:19:54;;;;;;;;;0.00;0.00;;;;;5.64;84.26;99696.25;5106335;27;46633;-72
2021/12/02 04:22:19;;;;;;;;;1.00;0.00;;;;;5.65;83.57;99701.44;5067791;27;45385;-76
2021/12/02 04:24:45;;;;;;;;;1.00;1.00;;;;;5.62;83.30;99687.63;5017127;28;45234;-74
2021/12/02 04:27:10;;;;;;;;;1.00;1.00;;;;;5.58;82.91;99696.47;5014393;27;45330;-72
2021/12/02 04:29:35;;;;;;;;;2.50;1.00;;;;;5.52;82.26;99703.59;5020951;27;46246;-73
2021/12/02 04:32:01;;;;;;;;;1.00;1.00;;;;;5.49;81.84;99713.28;5015278;27;45535;-72
2021/12/02 04:34:26;;;;;;;;;0.00;0.00;;;;;5.37;81.60;99707.59;5020075;27;45287;-72
2021/12/02 04:36:51;;;;;;;;;1.75;0.00;;;;;5.37;81.82;99727.56;5098995;27;45457;-74
2021/12/02 04:39:17;;;;;;;;;0.00;0.00;;;;;5.27;79.55;99729.63;5009439;27;47191;-74
2021/12/02 04:41:43;;;;;;;;;1.00;0.75;;;;;5.15;80.57;99735.22;4993485;28;45362;-74
2021/12/02 04:44:08;;;;;;;;;2.25;1.00;;;;;5.07;81.20;99735.47;5073195;27;45892;-75
2021/12/02 04:46:34;;;;;;;;;0.25;0.25;;;;;4.97;81.91;99746.19;5071037;27;45531;-74
2021/12/02 04:48:59;;;;;;;;;3.25;1.00;;;;;4.93;81.90;99741.97;5018736;28;46143;-72
2021/12/02 04:51:25;;;;;;;;;1.00;1.00;;;;;4.86;82.05;99742.19;5024635;27;45392;-73
2021/12/02 04:53:50;;;;;;;;;1.50;1.00;;;;;4.79;83.24;99760.59;5016612;28;45496;-72
2021/12/02 04:56:15;;;;;;;;;1.00;1.00;;;;;4.72;82.70;99760.81;5101202;27;45412;-72
2021/12/02 04:58:42;;;;;;;;;2.25;0.75;;;;;4.65;82.84;99758.41;5120797;27;46029;-74
2021/12/02 05:01:07;;;;;;;;;0.00;0.00;;;;;4.60;83.08;99762.06;5047641;27;45534;-75
2021/12/02 05:03:33;;;;;;;;;0.50;0.00;;;;;4.55;83.63;99762.16;5083286;27;46151;-75
2021/12/02 05:05:58;;;;;;;;;1.50;1.50;;;;;4.50;83.85;99772.72;5087817;27;45252;-74
2021/12/02 05:08:24;;;;;;;;;2.00;0.75;;;;;4.46;83.97;99783.25;5120410;27;45297;-76
2021/12/02 05:10:49;;;;;;;;;3.00;2.00;;;;;4.41;84.23;99774.72;5122141;27;45365;-75
2021/12/02 05:13:14;;;;;;;;;4.00;1.50;;;;;4.36;84.61;99774.88;5112087;27;45357;-75
2021/12/02 05:15:40;;;;;;;;;1.00;1.00;;;;;4.31;85.21;99781.94;5066166;27;45499;-75
2021/12/02 05:18:05;;;;;;;;;4.75;1.00;;;;;4.28;85.50;99777.66;5072368;27;45454;-72
2021/12/02 05:20:30;;;;;;;;;2.00;1.75;;;;;4.24;85.53;99779.50;5076757;27;45340;-72
2021/12/02 05:22:56;;;;;;;;;2.00;2.00;;;;;4.02;85.00;99750.59;5066713;27;45381;-73
2021/12/02 05:25:21;;;;;;;;;1.00;1.00;;;;;4.17;85.69;99771.91;5124492;27;45313;-74
2021/12/02 05:27:47;;;;;;;;;2.00;1.50;;;;;4.19;85.46;99775.31;5122380;27;46056;-73
2021/12/02 05:30:12;;;;;;;;;2.00;2.00;;;;;4.16;85.77;99780.59;5125267;27;45302;-73
2021/12/02 05:32:38;;;;;;;;;2.00;1.00;;;;;4.13;85.58;99780.69;5087150;27;45618;-72
2021/12/02 05:35:04;;;;;;;;;4.25;1.00;;;;;4.13;86.20;99794.53;5050125;27;45529;-71
2021/12/02 05:37:30;;;;;;;;;4.00;2.00;;;;;4.09;86.69;99779.91;5072277;27;46167;-72
2021/12/02 05:39:55;;;;;;;;;2.00;2.00;;;;;4.16;86.55;99781.44;5013667;28;45454;-73
2021/12/02 05:42:21;;;;;;;;;3.50;2.00;;;;;4.30;86.34;99795.88;5098782;27;45743;-73
2021/12/02 05:44:46;;;;;;;;;2.25;1.50;;;;;4.36;86.10;99800.91;5098368;27;45484;-73
2021/12/02 05:47:12;;;;;;;;;2.00;2.00;;;;;4.38;85.08;99801.72;5109831;27;46320;-75
2021/12/02 05:49:38;;;;;;;;;2.25;1.00;;;;;4.35;85.34;99791.38;5059491;27;45465;-71
2021/12/02 05:52:03;;;;;;;;;5.50;2.00;;;;;4.29;84.35;99795.00;5118824;27;45440;-75
2021/12/02 05:54:29;;;;;;;;;5.00;2.00;;;;;4.24;85.25;99792.53;5117943;27;45362;-75
2021/12/02 05:56:54;;;;;;;;;2.00;1.50;;;;;4.19;85.47;99796.97;5104618;27;46100;-73
2021/12/02 05:59:20;;;;;;;;;3.50;2.75;;;;;4.14;85.34;99792.81;5037344;27;44765;-77
2021/12/02 06:01:45;;;;;;;;;4.25;1.25;;;;;4.08;85.30;99799.88;5118740;27;45454;-74
2021/12/02 06:04:11;;;;;;;;;1.00;1.00;;;;;4.05;85.28;99799.09;5119210;27;45594;-74
2021/12/02 06:06:37;;;;;;;;;3.25;1.00;;;;;3.98;85.23;99793.19;5118764;27;46257;-73
2021/12/02 06:09:05;;;;;;;;;4.00;2.00;;;;;3.92;85.93;99802.00;5015378;27;45444;-74
2021/12/02 06:11:31;;;;;;;;;8.75;5.75;;;;;3.88;85.81;99797.78;5111434;27;45276;-75
2021/12/02 06:13:56;;;;;;;;;2.25;2.00;;;;;3.82;85.62;99797.94;5062446;27;45498;-73
2021/12/02 06:16:21;;;;;;;;;1.75;1.75;;;;;3.86;85.18;99825.56;5117755;27;46235;-74
2021/12/02 06:18:47;;;;;;;;;1.75;1.75;;;;;3.82;86.06;99823.09;5117966;27;45364;-73
2021/12/02 06:21:12;;;;;;;;;2.50;2.50;;;;;3.72;85.87;99807.72;5118174;27;45417;-72
2021/12/02 06:23:40;;;;;;;;;2.00;2.00;;;;;3.77;86.26;99821.47;5110726;27;45446;-75
2021/12/02 06:26:06;;;;;;;;;4.25;1.75;;;;;3.79;86.79;99824.03;5094319;27;46605;-72
2021/12/02 06:28:31;;;;;;;;;3.75;2.25;;;;;3.80;86.81;99818.78;5017619;27;45301;-73
2021/12/02 06:30:57;;;;;;;;;4.50;3.00;;;;;3.77;86.87;99818.00;5015047;28;45425;-72
2021/12/02 06:33:22;;;;;;;;;2.25;2.00;;;;;3.75;86.85;99815.44;5085650;27;45519;-73
2021/12/02 06:35:48;;;;;;;;;4.50;3.75;;;;;3.71;87.24;99805.16;5120473;27;46346;-75
2021/12/02 06:38:14;;;;;;;;;0.00;0.00;;;;;3.70;87.25;99813.84;5116163;27;45204;-75
2021/12/02 06:40:42;;;;;;;;;6.00;3.75;;;;;3.65;87.57;99817.41;5120646;27;45352;-76
2021/12/02 06:43:09;;;;;;;;;6.75;3.75;;;;;3.64;87.71;99823.50;5116001;27;45402;-74
2021/12/02 06:45:34;;;;;;;;;4.50;2.75;;;;;3.63;87.00;99828.72;5066573;27;45458;-75
2021/12/02 06:48:00;;;;;;;;;5.25;3.75;;;;;3.60;87.10;99834.00;5048571;27;45427;-73
2021/12/02 06:50:28;;;;;;;;;4.00;3.00;;;;;3.54;87.15;99829.81;5014313;28;45443;-76
2021/12/02 06:52:53;;;;;;;;;5.00;3.00;;;;;3.49;87.63;99834.25;5063194;27;45496;-72
2021/12/02 06:55:20;;;;;;;;;9.25;3.00;;;;;3.54;86.93;99848.00;5117928;27;46144;-74
2021/12/02 06:57:45;;;;;;;;;2.50;2.50;;;;;3.53;87.29;99859.31;5076823;27;45380;-74
2021/12/02 07:00:14;;;;;;;;;3.00;2.25;;;;;3.58;86.88;99861.78;5093545;27;45325;-73
2021/12/02 07:02:40;;;;;;;;;5.00;3.25;;;;;3.67;86.95;99864.16;5014814;27;45368;-76
2021/12/02 07:05:07;;;;;;;;;0.75;0.75;;;;;3.74;86.12;99868.38;5091047;27;46002;-73
2021/12/02 07:07:37;;;;;;;;;2.00;2.00;;;;;3.81;86.31;99871.66;5052450;27;45255;-76
2021/12/02 07:10:21;;;;;;;;;2.50;2.50;;;;;3.80;85.52;99876.03;5066805;27;45232;-76
2021/12/02 07:12:50;;;;;;;;;7.25;4.75;;;;;3.92;86.44;99893.06;5062715;27;45367;-73
2021/12/02 07:15:17;;;;;;;;;7.00;2.50;;;;;3.98;85.82;99891.22;5082459;27;47143;-75
2021/12/02 07:17:50;;;;;;;;;6.50;3.75;;;;;4.05;85.53;99888.44;5029700;27;45440;-75
2021/12/02 07:20:16;;;;;;;;;2.00;2.00;;;;;4.00;85.03;99884.22;5115568;27;45373;-76
2021/12/02 07:22:41;;;;;;;;;8.00;3.00;;;;;3.99;84.33;99888.59;5078487;27;45500;-75
2021/12/02 07:25:07;;;;;;;;;5.50;2.50;;;;;3.90;83.67;99894.88;5036317;27;46226;-75
2021/12/02 07:27:33;;;;;;;;;4.00;2.75;;;;;3.78;84.12;99888.22;5114644;27;45415;-71
2021/12/02 07:29:58;;;;;;;;;3.00;2.75;;;;;3.75;83.98;99893.50;5115519;27;45191;-70
2021/12/02 07:32:35;;;;;;;;;9.00;4.75;;;;;3.70;84.97;99897.91;5035902;27;45523;-70
2021/12/02 07:35:04;;;;;;;;;7.25;5.50;;;;;3.68;84.83;99904.06;5014753;28;46278;-71
2021/12/02 07:37:30;;;;;;;;;5.25;2.25;;;;;3.65;84.86;99911.03;5013802;28;45371;-69
2021/12/02 07:39:55;;;;;;;;;5.50;4.00;;;;;3.63;84.53;99919.75;5092427;27;45305;-71
2021/12/02 07:42:21;;;;;;;;;5.75;3.75;;;;;3.59;84.38;99918.09;5013047;28;45649;-73
2021/12/02 07:44:47;;;;;;;;;6.00;4.00;;;;;3.58;84.91;99912.06;5012881;28;46145;-69
2021/12/02 07:47:12;;;;;;;;;3.50;3.50;;;;;3.56;85.23;99906.03;5014933;28;45326;-69
2021/12/02 07:49:38;;;;;;;;;7.75;3.75;;;;;3.52;85.16;99896.59;5013252;28;45387;-71
2021/12/02 07:52:04;;;;;;;;;3.00;2.25;;;;;3.48;84.56;99903.59;5048931;27;45616;-71
2021/12/02 07:54:33;;;;;;;;;5.00;2.00;;;;;3.55;84.47;99921.66;5117482;27;46210;-71
2021/12/02 07:56:59;;;;;;;;;4.75;2.50;;;;;3.58;84.85;99913.81;5066821;27;45504;-70
2021/12/02 07:59:25;;;;;;;;;2.75;0.00;;;;;3.65;84.55;99916.25;5098137;27;45389;-70
2021/12/02 08:01:51;;;;;;;;;7.75;4.50;;;;;3.70;84.42;99903.13;5116744;27;45930;-70
2021/12/02 08:04:16;;;;;;;;;4.00;3.25;;;;;3.84;84.20;99926.22;5120980;27;45440;-70
2021/12/02 08:06:42;;;;;;;;;7.25;4.00;;;;;3.92;84.65;99929.50;5117417;27;45249;-70
2021/12/02 08:09:12;;;;;;;;;7.25;3.00;;;;;4.00;83.88;99936.28;5022536;27;45563;-75
2021/12/02 08:11:37;;;;;;;;;4.25;3.75;;;;;4.05;83.13;99924.88;5013536;28;45447;-74
2021/12/02 08:14:07;;;;;;;;;4.00;2.25;;;;;4.11;82.35;99929.06;5013186;28;46366;-72
2021/12/02 08:16:33;;;;;;;;;4.75;2.75;;;;;4.08;82.73;99930.00;5013095;27;45354;-74
2021/12/02 08:19:01;;;;;;;;;7.00;5.75;;;;;4.15;82.96;99943.72;5013036;28;45345;-71
2021/12/02 08:21:26;;;;;;;;;6.75;3.00;;;;;4.21;82.77;99937.53;5013456;28;45450;-71
2021/12/02 08:23:51;;;;;;;;;5.50;2.75;;;;;4.28;82.06;99940.84;5013945;27;46284;-73
2021/12/02 08:26:17;;;;;;;;;3.75;2.00;;;;;4.30;82.18;99949.47;5013462;28;45364;-72
2021/12/02 08:28:42;;;;;;;;;3.75;2.00;;;;;4.30;82.47;99944.28;5012978;28;45231;-69
2021/12/02 08:31:07;;;;;;;;;4.25;2.75;;;;;4.37;82.34;99951.03;5012351;28;45723;-72
2021/12/02 08:33:33;;;;;;;;;4.00;3.75;;;;;4.39;82.73;99955.28;5010860;28;48537;-70
2021/12/02 08:35:58;;;;;;;;;7.75;6.00;;;;;4.40;81.95;99953.56;5012736;28;45305;-71
2021/12/02 08:38:32;;;;;;;;;5.25;4.00;;;;;4.38;81.52;99964.00;5025963;27;45453;-71
2021/12/02 08:40:59;;;;;;;;;4.75;4.00;;;;;4.08;81.81;99931.75;5117065;27;45312;-72
2021/12/02 08:43:25;;;;;;;;;3.25;2.00;;;;;4.28;81.02;99966.88;5114923;27;45510;-72
2021/12/02 08:45:51;;;;;;;;;3.00;2.00;;;;;4.22;81.55;99979.13;5115359;27;45492;-74
2021/12/02 08:48:16;;;;;;;;;4.50;2.00;;;;;4.17;81.56;99975.78;5116966;27;45454;-73
2021/12/02 08:50:42;;;;;;;;;4.00;3.25;;;;;4.15;81.30;99977.56;5118444;27;45487;-75
2021/12/02 08:53:10;;;;;;;;;5.50;3.00;;;;;4.16;82.39;99971.47;5119097;27;45556;-70
2021/12/02 08:55:36;;;;;;;;;3.25;2.25;;;;;4.17;82.35;99977.53;5118047;27;45313;-72
2021/12/02 08:58:04;;;;;;;;;10.25;4.25;;;;;4.21;82.27;99985.22;5118796;27;45316;-74
2021/12/02 09:00:35;;;;;;;;;8.25;5.00;;;;;4.22;82.43;99983.50;5124195;27;45380;-74
2021/12/02 09:03:03;;;;;;;;;5.00;4.00;;;;;4.23;82.42;99987.81;5121610;27;46625;-71
2021/12/02 09:05:29;;;;;;;;;6.00;4.50;;;;;4.18;82.26;99982.69;5118256;27;45477;-73
2021/12/02 09:07:55;;;;;;;;;4.50;3.25;;;;;4.19;82.55;99997.41;5099849;27;45345;-75
2021/12/02 09:10:21;;;;;;;;;5.75;4.00;;;;;4.19;82.07;99993.97;5120549;27;45568;-71
2021/12/02 09:12:47;;;;;;;;;6.00;3.00;;;;;4.25;82.10;99999.03;5120006;27;45317;-74
2021/12/02 09:15:13;;;;;;;;;9.25;2.50;;;;;4.32;82.37;100007.59;5117989;27;45308;-73
2021/12/02 09:17:39;;;;;;;;;5.25;3.25;;;;;4.38;82.02;100003.06;5118483;27;45521;-74
2021/12/02 09:20:07;;;;;;;;;5.75;2.75;;;;;4.53;81.25;100012.28;5118271;27;45344;-73
2021/12/02 09:22:33;;;;;;;;;4.00;3.00;;;;;4.45;80.83;99995.97;5119473;27;46387;-75
2021/12/02 09:24:59;;;;;;;;;5.00;3.00;;;;;4.69;81.24;100022.31;5120566;27;45336;-72
2021/12/02 09:27:24;;;;;;;;;6.00;5.00;;;;;4.81;81.53;100023.75;5118498;27;45539;-73
2021/12/02 09:29:50;;;;;;;;;8.00;5.00;;;;;4.91;80.79;100027.84;5122841;27;45275;-74
2021/12/02 09:32:15;;;;;;;;;5.00;5.00;;;;;4.98;80.48;100025.91;5123478;27;45256;-74
2021/12/02 09:34:41;;;;;;;;;6.75;4.00;;;;;5.08;80.83;100023.94;5123098;27;45300;-74
2021/12/02 09:37:06;;;;;;;;;4.75;4.25;;;;;5.18;80.18;100022.78;5124332;27;45316;-72
2021/12/02 09:39:34;;;;;;;;;7.00;6.00;;;;;5.24;80.06;100033.06;5124139;27;45378;-71
2021/12/02 09:42:01;;;;;;;;;4.75;3.50;;;;;5.28;79.72;100031.22;5124202;27;46174;-73
2021/12/02 09:44:28;;;;;;;;;5.50;3.75;;;;;5.31;79.54;100036.38;5124584;27;45240;-72
2021/12/02 09:46:55;;;;;;;;;11.00;5.75;;;;;5.25;79.65;100007.81;5122367;27;45463;-75
2021/12/02 09:49:23;;;;;;;;;5.75;4.00;;;;;5.50;79.33;100043.69;5122202;27;45384;-73
2021/12/02 09:54:23;;;;;;;;;5.25;4.00;;;;;5.56;77.90;100046.13;5121662;27;45409;-73
2021/12/02 09:56:52;;;;;;;;;5.00;3.50;;;;;5.54;77.36;100045.31;5121073;27;45279;-72
2021/12/02 09:59:26;;;;;;;;;4.50;2.25;;;;;5.52;77.36;100041.91;5122064;27;45580;-78
2021/12/02 10:01:58;;;;;;;;;3.00;2.50;;;;;5.50;77.70;100056.72;5120784;27;46025;-72
2021/12/02 10:04:25;;;;;;;;;4.75;2.75;;;;;5.43;76.84;100053.44;5121175;27;45239;-71
2021/12/02 10:07:08;;;;;;;;;4.25;4.00;;;;;5.24;76.82;100027.84;5120472;27;45192;-74
2021/12/02 10:09:42;;;;;;;;;3.00;2.00;;;;;5.48;77.52;100054.16;5120130;27;45277;-71
2021/12/02 10:12:16;;;;;;;;;2.75;2.00;;;;;5.50;76.07;100057.56;5120484;27;46198;-74
2021/12/02 10:14:50;;;;;;;;;3.50;3.00;;;;;5.56;75.75;100054.78;5121531;27;45304;-73
2021/12/02 10:17:30;;;;;;;;;4.25;2.25;;;;;5.65;76.48;100056.31;5119996;27;45328;-73
2021/12/02 10:22:42;;;;;;;;;6.00;3.50;;;;;5.73;76.02;100063.91;5126031;27;45238;-73
2021/12/02 10:25:08;;;;;;;;;4.75;3.00;;;;;5.73;75.66;100061.28;5121130;27;45176;-74
2021/12/02 10:27:34;;;;;;;;;5.25;3.25;;;;;5.63;75.61;100058.09;5119121;27;45395;-72
2021/12/02 10:29:59;;;;;;;;;4.00;2.75;;;;;5.54;74.76;100058.34;5119772;27;45528;-71
2021/12/02 10:32:28;;;;;;;;;3.25;2.00;;;;;5.53;75.18;100060.09;5120995;27;46109;-74
2021/12/02 10:35:00;;;;;;;;;2.00;2.00;;;;;5.43;73.32;100042.16;5120970;27;45273;-70
2021/12/02 10:37:32;;;;;;;;;4.50;1.50;;;;;5.51;74.97;100053.22;5119954;27;45393;-73
2021/12/02 10:40:08;;;;;;;;;6.00;2.00;;;;;5.56;75.07;100059.16;5122431;27;45986;-73
2021/12/02 10:42:38;;;;;;;;;4.75;3.00;;;;;5.55;75.21;100047.03;5118021;27;45443;-70
2021/12/02 10:45:06;;;;;;;;;6.50;5.00;;;;;5.58;75.03;100052.16;5118311;27;45243;-72
2021/12/02 10:47:33;;;;;;;;;5.00;2.50;;;;;5.53;74.90;100044.44;5118703;27;45255;-70
2021/12/02 10:50:05;;;;;;;;;5.75;2.25;;;;;5.51;73.99;100045.41;5118075;27;45483;-73
2021/12/02 10:52:34;;;;;;;;;4.00;2.00;;;;;5.52;74.08;100036.69;5117425;27;46187;-72
2021/12/02 10:55:08;;;;;;;;;6.25;3.25;;;;;5.55;74.39;100049.63;5117670;27;45491;-68
2021/12/02 10:57:46;;;;;;;;;4.00;4.00;;;;;5.62;73.87;100032.91;5118647;27;45428;-71
2021/12/02 11:00:14;;;;;;;;;3.75;2.00;;;;;5.71;72.92;100023.94;5119470;27;45433;-71
2021/12/02 11:02:52;;;;;;;;;2.00;2.00;;;;;5.84;72.80;100029.66;5121008;27;46315;-73
2021/12/02 11:05:31;;;;;;;;;4.00;2.00;;;;;5.97;70.81;100022.34;5119215;27;45570;-74
2021/12/02 11:08:06;;;;;;;;;4.50;2.75;;;;;6.12;69.48;100021.91;5119481;27;45344;-73
2021/12/02 11:10:35;;;;;;;;;3.75;3.75;;;;;6.28;69.76;100017.03;5119845;27;45578;-74
2021/12/02 11:13:02;;;;;;;;;2.25;2.00;;;;;6.38;68.32;100011.56;5118630;27;46245;-72
2021/12/02 11:15:29;;;;;;;;;8.25;4.25;;;;;6.45;68.87;100013.06;5118921;27;45345;-73
2021/12/02 11:17:58;;;;;;;;;4.50;3.00;;;;;6.47;69.09;100006.03;5117798;27;45356;-72
2021/12/02 11:20:28;;;;;;;;;9.25;4.00;;;;;6.53;69.99;100020.63;5116728;27;45607;-73
2021/12/02 11:23:14;;;;;;;;;7.00;5.25;;;;;6.54;69.10;100023.22;5118093;27;46065;-73
2021/12/02 11:26:03;;;;;;;;;8.75;6.50;;;;;6.49;69.20;100006.84;5122538;27;44809;-75
2021/12/02 11:28:32;;;;;;;;;9.00;4.75;;;;;6.54;69.96;100020.59;5105888;27;45389;-72
2021/12/02 11:31:13;;;;;;;;;3.00;2.00;;;;;6.51;69.00;100025.06;5119364;27;45341;-75
2021/12/02 11:33:41;;;;;;;;;4.00;4.00;;;;;6.41;67.47;100014.06;5118948;27;45364;-73
2021/12/02 11:36:28;;;;;;;;;7.50;6.00;;;;;6.35;68.39;100017.72;5117005;27;45272;-73
2021/12/02 11:38:58;;;;;;;;;4.25;4.25;;;;;6.22;69.15;100012.00;5120106;27;45466;-75
2021/12/02 11:41:24;;;;;;;;;2.25;2.25;;;;;6.06;67.79;100016.00;5120217;27;45325;-74
2021/12/02 11:43:50;;;;;;;;;4.00;1.00;;;;;5.51;79.55;100032.34;5116899;27;48173;-75
2021/12/02 11:46:16;;;;;;;;;3.25;0.75;;;;;5.03;84.59;100034.47;5118598;27;45318;-73
2021/12/02 11:48:43;;;;;;;;;1.00;1.00;;;;;4.51;85.94;100027.06;5118645;27;45396;-71
2021/12/02 11:51:18;;;;;;;;;2.50;2.00;;;;;4.25;83.69;100025.06;5118129;27;45355;-74
2021/12/02 11:53:44;;;;;;;;;0.25;0.25;;;;;3.94;80.82;100023.16;5118795;27;46656;-71
2021/12/02 11:56:16;;;;;;;;;2.75;2.00;;;;;3.79;82.23;100025.22;5118519;27;45415;-71
2021/12/02 11:58:42;;;;;;;;;2.50;2.50;;;;;3.74;85.43;100029.66;5119457;27;45242;-73
2021/12/02 12:01:21;;;;;;;;;4.50;4.25;;;;;3.78;89.49;100025.22;5121472;27;45567;-75
2021/12/02 12:03:54;;;;;;;;;1.25;0.25;;;;;3.73;89.09;100007.13;5118684;27;45459;-72
2021/12/02 12:06:26;;;;;;;;;1.00;1.00;;;;;3.78;91.86;100017.44;5118963;27;45448;-71